Time;durP1;ratioP1;P1;durP2;ratioP2;P2;SDS_P1;SDS_P2;PMS_P1;PMS_P2;Temp;Humidity;BMP_temperature;BMP_pressure;BME280_temperature;BME280_humidity;BME280_pressure;Samples;Min_cycle;Max_cycle;Signal;HPM_P1;HPM_P2
2022/06/05 00:02:50;;;;;;;3.93;2.17;;;;;;;-144.94;47.82;76190.44;5015562;28;19909;-78
2022/06/05 00:05:25;;;;;;;4.22;2.28;;;;;;;-144.94;47.98;76192.50;4954990;29;20327;-78
2022/06/05 00:08:36;;;;;;;3.67;2.20;;;;;;;-144.94;48.13;76200.72;5008203;28;20049;-78
2022/06/05 00:11:02;;;;;;;5.35;2.33;;;;;;;-144.94;47.99;76198.66;4984877;28;20050;-78
2022/06/05 00:13:27;;;;;;;;;;;;;;;-144.94;48.11;76200.72;5016166;28;20038;-79
2022/06/05 00:15:53;;;;;;;4.90;2.50;;;;;;;-144.94;48.16;76202.78;5015052;28;19996;-78
2022/06/05 00:18:18;;;;;;;;;;;;;;;-144.94;48.42;76217.19;5015760;28;20036;-78
2022/06/05 00:20:44;;;;;;;3.93;2.27;;;;;;;-144.94;48.49;76219.25;5015645;28;19914;-78
2022/06/05 00:23:10;;;;;;;4.28;2.47;;;;;;;-144.94;48.20;76194.56;5015196;28;20663;-78
2022/06/05 00:25:56;;;;;;;;;;;;;;;-144.94;48.51;76215.13;5015615;28;20034;-79
2022/06/05 00:28:26;;;;;;;3.95;2.42;;;;;;;-144.94;48.90;76231.59;4994180;28;20355;-79
2022/06/05 00:31:13;;;;;;;5.03;2.50;;;;;;;-144.94;49.28;76239.84;5015348;28;20368;-78
2022/06/05 00:33:40;;;;;;;;;;;;;;;-144.94;49.24;76225.44;5015719;28;20026;-78
2022/06/05 00:36:45;;;;;;;3.95;2.22;;;;;;;-144.94;49.03;76221.31;5013907;28;19937;-78
2022/06/05 00:39:27;;;;;;;4.78;2.35;;;;;;;-144.94;49.02;76221.31;5013071;28;20129;-78
2022/06/05 00:41:52;;;;;;;4.32;2.30;;;;;;;-144.94;49.11;76221.31;5014882;28;20084;-77
2022/06/05 00:44:22;;;;;;;;;;;;;;;-144.94;49.43;76229.53;5015242;28;20022;-78
2022/06/05 00:46:50;;;;;;;4.95;2.10;;;;;;;-144.94;49.73;76246.00;5014939;28;19924;-77
2022/06/05 00:49:16;;;;;;;4.00;2.33;;;;;;;-144.94;49.50;76239.84;5015341;28;20419;-79
2022/06/05 00:51:41;;;;;;;;;;;;;;;-144.94;50.00;76250.13;5015368;28;20117;-78
2022/06/05 00:54:07;;;;;;;4.45;2.45;;;;;;;-144.94;50.07;76254.25;5014652;28;19913;-78
2022/06/05 00:56:32;;;;;;;;;;;;;;;-144.94;50.02;76237.78;5015378;28;20042;-79
2022/06/05 00:59:01;;;;;;;4.45;2.40;;;;;;;-144.94;49.85;76237.78;5013272;28;19948;-79
2022/06/05 01:01:27;;;;;;;5.03;2.60;;;;;;;-144.94;49.65;76233.66;5014766;28;20041;-79
2022/06/05 01:03:52;;;;;;;;;;;;;;;-144.94;50.07;76241.91;5015009;28;20087;-79
2022/06/05 01:06:24;;;;;;;4.70;2.50;;;;;;;-144.94;50.44;76262.47;5014725;28;20000;-79
2022/06/05 01:08:50;;;;;;;4.97;2.60;;;;;;;-144.94;50.78;76278.97;5015219;28;20034;-78
2022/06/05 01:11:15;;;;;;;;;;;;;;;-144.94;50.77;76274.84;5014733;28;20037;-79
2022/06/05 01:13:49;;;;;;;4.43;2.50;;;;;;;-144.94;50.92;76291.31;5014319;28;19913;-79
2022/06/05 01:16:36;;;;;;;5.38;3.08;;;;;;;-144.94;51.05;76291.31;5014575;28;20347;-79
2022/06/05 01:19:23;;;;;;;5.72;3.05;;;;;;;-144.94;50.93;76283.06;5012933;28;20427;-78
2022/06/05 01:22:30;;;;;;;5.50;2.33;;;;;;;-144.94;51.15;76287.19;5014626;28;20471;-78
2022/06/05 01:25:15;;;;;;;4.67;2.87;;;;;;;-144.94;51.28;76281.00;5014163;28;20484;-78
2022/06/05 01:27:46;;;;;;;5.63;2.70;;;;;;;-144.94;51.13;76281.00;5013629;28;20391;-78
2022/06/05 01:30:17;;;;;;;4.53;2.47;;;;;;;-144.94;50.72;76254.25;5014117;28;20392;-78
2022/06/05 01:33:13;;;;;;;7.15;2.95;;;;;;;-144.94;51.24;76285.13;5014278;28;20358;-78
2022/06/05 01:36:04;;;;;;;4.80;2.85;;;;;;;-144.94;51.87;76328.34;5014034;28;20037;-78
2022/06/05 01:38:48;;;;;;;5.25;2.90;;;;;;;-144.94;52.35;76324.25;5013916;28;20456;-78
2022/06/05 01:41:25;;;;;;;6.68;2.78;;;;;;;-144.94;52.19;76316.00;5013707;28;20038;-78
2022/06/05 01:43:55;;;;;;;4.93;2.92;;;;;;;-144.94;52.01;76299.53;5014099;28;20037;-78
2022/06/05 01:46:33;;;;;;;5.28;2.65;;;;;;;-144.94;52.04;76299.53;5013727;28;20500;-78
2022/06/05 01:49:28;;;;;;;5.30;2.85;;;;;;;-144.94;52.35;76303.66;5013758;28;20036;-78
2022/06/05 01:52:12;;;;;;;5.40;3.08;;;;;;;-144.94;52.58;76311.88;5008641;28;20034;-78
2022/06/05 01:54:49;;;;;;;5.65;3.00;;;;;;;-144.94;52.52;76305.72;5013728;28;20034;-78
2022/06/05 01:57:17;;;;;;;7.45;3.47;;;;;;;-144.94;52.87;76320.13;5014107;28;20034;-77
2022/06/05 01:59:56;;;;;;;5.68;3.05;;;;;;;-144.94;52.72;76316.00;5013640;28;20030;-78
2022/06/05 02:02:33;;;;;;;5.70;3.05;;;;;;;-144.94;52.89;76316.00;5013754;28;20030;-77
2022/06/05 02:05:09;;;;;;;5.63;3.20;;;;;;;-144.94;52.88;76301.59;5012512;28;20030;-78
2022/06/05 02:07:43;;;;;;;5.47;2.90;;;;;;;-144.94;53.17;76311.88;5013789;28;20041;-78
2022/06/05 02:10:42;;;;;;;5.70;3.53;;;;;;;-144.94;53.14;76320.13;5012101;28;20029;-78
2022/06/05 02:13:08;;;;;;;5.70;3.10;;;;;;;-144.94;53.48;76334.53;5008290;28;20069;-78
2022/06/05 02:15:36;;;;;;;6.55;2.83;;;;;;;-144.94;53.67;76332.47;5013583;28;20058;-78
2022/06/05 02:18:02;;;;;;;5.30;3.00;;;;;;;-144.94;53.47;76316.00;5013388;28;20038;-78
2022/06/05 02:20:28;;;;;;;5.80;3.10;;;;;;;-144.94;53.45;76318.06;5013361;28;20033;-78
2022/06/05 02:22:54;;;;;;;5.85;3.08;;;;;;;-144.94;53.14;76305.72;5011314;28;20038;-78
2022/06/05 02:25:30;;;;;;;5.43;3.03;;;;;;;-144.94;53.19;76307.78;5013273;28;20033;-78
2022/06/05 02:28:10;;;;;;;5.25;2.70;;;;;;;-144.94;53.52;76316.00;5013538;28;20054;-78
2022/06/05 02:31:07;;;;;;;6.72;2.90;;;;;;;-144.94;53.91;76326.31;5013503;28;20045;-78
2022/06/05 02:33:54;;;;;;;5.63;3.05;;;;;;;-144.94;53.65;76307.78;5013135;28;20030;-78
2022/06/05 02:36:44;;;;;;;6.28;2.85;;;;;;;-144.94;53.54;76293.38;5013509;28;20057;-77
2022/06/05 02:39:21;;;;;;;5.80;3.35;;;;;;;-144.94;53.81;76299.53;5016796;28;20578;-78
2022/06/05 02:41:53;;;;;;;4.97;3.15;;;;;;;-144.94;53.67;76299.53;5017309;28;20096;-77
2022/06/05 02:44:40;;;;;;;5.43;3.25;;;;;;;-144.94;54.09;76307.78;5017432;28;20068;-78
2022/06/05 02:47:20;;;;;;;5.13;3.00;;;;;;;-144.94;53.87;76299.53;5017351;28;20026;-78
2022/06/05 02:50:11;;;;;;;5.95;3.22;;;;;;;-144.94;53.96;76297.47;5017328;28;20515;-79
2022/06/05 02:52:38;;;;;;;6.18;2.95;;;;;;;-144.94;54.16;76299.53;5016795;28;20041;-78
2022/06/05 02:55:07;;;;;;;5.97;3.40;;;;;;;-144.94;54.39;76303.66;5016841;28;20109;-78
2022/06/05 02:57:34;;;;;;;5.63;2.95;;;;;;;-144.94;54.02;76291.31;5016842;28;20057;-77
2022/06/05 03:00:00;;;;;;;5.65;3.35;;;;;;;-144.94;54.08;76291.31;5014892;28;20511;-78
2022/06/05 03:05:09;;;;;;;5.30;2.85;;;;;;;-144.94;54.44;76301.59;5016741;28;20103;-79
2022/06/05 03:07:35;;;;;;;6.53;3.40;;;;;;;-144.94;54.48;76309.84;5017193;28;20026;-78
2022/06/05 03:10:03;;;;;;;5.22;3.28;;;;;;;-144.94;54.63;76295.44;5015607;28;20763;-78
2022/06/05 03:12:29;;;;;;;5.90;3.28;;;;;;;-144.94;54.79;76291.31;5016465;28;20484;-77
2022/06/05 03:14:56;;;;;;;5.80;3.05;;;;;;;-144.94;54.30;76285.13;5016566;28;20527;-78
2022/06/05 03:17:23;;;;;;;9.80;4.22;;;;;;;-144.94;54.29;76289.25;5015054;28;20396;-79
2022/06/05 03:19:49;;;;;;;6.22;3.38;;;;;;;-144.94;54.55;76291.31;5016506;28;20030;-78
2022/06/05 03:22:14;;;;;;;;;;;;;;;-144.94;54.57;76293.38;5015862;28;20524;-77
2022/06/05 03:24:39;;;;;;;6.10;3.60;;;;;;;-144.94;54.83;76297.47;5016138;28;20008;-78
2022/06/05 03:27:05;;;;;;;10.30;3.70;;;;;;;-144.94;54.59;76293.38;5016561;28;20045;-78
2022/06/05 03:29:31;;;;;;;;;;;;;;;-144.94;54.95;76299.53;5016611;28;20040;-78
2022/06/05 03:31:57;;;;;;;6.03;3.13;;;;;;;-144.94;54.64;76289.25;5016082;28;19913;-78
2022/06/05 03:34:22;;;;;;;;;;;;;;;-144.94;54.51;76285.13;5017093;28;20314;-78
2022/06/05 03:36:48;;;;;;;5.75;3.35;;;;;;;-144.94;54.73;76291.31;5016049;28;19909;-78
2022/06/05 03:39:14;;;;;;;6.97;3.35;;;;;;;-144.94;54.70;76287.19;5016290;28;20042;-78
2022/06/05 03:41:39;;;;;;;;;;;;;;;-144.94;54.67;76283.06;5016372;28;20034;-77
2022/06/05 03:44:05;;;;;;;5.93;3.63;;;;;;;-144.94;54.67;76295.44;5016301;28;19913;-77
2022/06/05 03:46:34;;;;;;;7.90;3.40;;;;;;;-144.94;54.60;76287.19;5016206;28;20033;-78
2022/06/05 03:48:59;;;;;;;7.65;3.35;;;;;;;-144.94;54.80;76287.19;5015268;28;20344;-78
2022/06/05 03:51:25;;;;;;;6.50;3.97;;;;;;;-144.94;54.77;76293.38;5016048;28;20121;-77
2022/06/05 03:53:57;;;;;;;;;;;;;;;-144.94;54.90;76293.38;5016424;28;20045;-78
2022/06/05 03:56:32;;;;;;;7.72;3.90;;;;;;;-144.94;54.86;76289.25;5016144;28;19913;-78
2022/06/05 03:59:01;;;;;;;7.47;4.00;;;;;;;-144.94;54.79;76291.31;5016142;28;20407;-78
2022/06/05 04:01:29;;;;;;;6.57;4.30;;;;;;;-144.94;54.84;76291.31;5015768;28;20068;-77
2022/06/05 04:03:58;;;;;;;6.90;4.10;;;;;;;-144.94;54.92;76291.31;5015701;28;20380;-78
2022/06/05 04:06:28;;;;;;;7.28;3.70;;;;;;;-144.94;55.01;76303.66;5014521;28;20049;-78
2022/06/05 04:08:55;;;;;;;9.18;4.50;;;;;;;-144.94;54.97;76293.38;5015955;28;20104;-78
2022/06/05 04:11:21;;;;;;;6.57;3.58;;;;;;;-144.94;55.17;76293.38;5015781;28;20041;-78
2022/06/05 04:13:49;;;;;;;7.03;3.92;;;;;;;-144.94;55.13;76289.25;5014234;28;20094;-77
2022/06/05 04:16:17;;;;;;;6.95;4.10;;;;;;;-144.94;54.83;76281.00;5014128;28;20057;-79
2022/06/05 04:18:45;;;;;;;6.07;3.58;;;;;;;-144.94;55.04;76289.25;5015394;28;20026;-77
2022/06/05 04:21:14;;;;;;;6.72;3.67;;;;;;;-144.94;54.91;76289.25;5015408;28;20511;-77
2022/06/05 04:23:40;;;;;;;6.18;3.60;;;;;;;-144.94;55.28;76307.78;5015321;28;20380;-78
2022/06/05 04:26:15;;;;;;;7.03;3.75;;;;;;;-144.94;55.43;76307.78;5015233;28;20030;-77
2022/06/05 04:28:41;;;;;;;7.47;4.25;;;;;;;-144.94;55.16;76285.13;5013798;28;20053;-78
2022/06/05 04:31:40;;;;;;;8.25;3.70;;;;;;;-144.94;55.33;76295.44;5015438;28;20077;-77
2022/06/05 04:34:16;;;;;;;6.75;3.78;;;;;;;-144.94;55.19;76283.06;4982804;28;20034;-80
2022/06/05 04:36:45;;;;;;;6.50;3.67;;;;;;;-144.94;55.39;76270.72;5015812;28;20038;-77
2022/06/05 04:39:11;;;;;;;6.25;3.63;;;;;;;-144.94;55.00;76278.97;5015545;28;20037;-78
2022/06/05 04:41:37;;;;;;;6.57;3.80;;;;;;;-144.94;54.88;76270.72;5014930;28;20121;-78
2022/06/05 04:44:17;;;;;;;8.60;3.53;;;;;;;-144.94;54.76;76270.72;5013983;28;20423;-78
2022/06/05 04:46:43;;;;;;;6.53;3.92;;;;;;;-144.94;54.90;76272.78;5015286;28;20029;-79
2022/06/05 04:49:10;;;;;;;8.30;4.30;;;;;;;-144.94;55.04;76268.66;5014875;28;20072;-77
2022/06/05 04:51:36;;;;;;;6.47;3.45;;;;;;;-144.94;54.91;76272.78;5014731;28;20036;-78
2022/06/05 04:54:05;;;;;;;;;;;;;;;-144.94;54.79;76266.59;5013869;28;20030;-77
2022/06/05 04:56:32;;;;;;;7.82;3.42;;;;;;;-144.94;54.70;76270.72;5015084;28;19913;-76
2022/06/05 04:59:01;;;;;;;6.53;3.50;;;;;;;-144.94;54.65;76283.06;5013403;28;20030;-77
2022/06/05 05:01:39;;;;;;;5.90;3.35;;;;;;;-144.94;54.47;76262.47;5013684;28;20071;-78
2022/06/05 05:04:10;;;;;;;6.35;3.53;;;;;;;-144.94;54.67;76272.78;5014676;28;20076;-77
2022/06/05 05:06:39;;;;;;;5.30;3.33;;;;;;;-144.94;54.68;76270.72;5015241;28;20026;-79
2022/06/05 05:09:10;;;;;;;6.47;3.67;;;;;;;-144.94;54.86;76274.84;5014655;28;20061;-78
2022/06/05 05:11:36;;;;;;;6.63;3.58;;;;;;;-144.94;54.52;76266.59;5014398;28;20072;-79
2022/06/05 05:14:05;;;;;;;5.55;3.13;;;;;;;-144.94;54.82;76274.84;5013219;28;20384;-77
2022/06/05 05:16:34;;;;;;;5.68;3.28;;;;;;;-144.94;54.52;76254.25;5014620;28;20060;-79
2022/06/05 05:18:59;;;;;;;5.57;3.10;;;;;;;-144.94;54.77;76266.59;5014950;28;20030;-80
2022/06/05 05:21:29;;;;;;;5.85;3.30;;;;;;;-144.94;55.55;76295.44;5013424;28;20032;-80
2022/06/05 05:24:13;;;;;;;7.13;3.88;;;;;;;-144.94;56.00;76301.59;5015002;28;20033;-82
2022/06/05 05:26:47;;;;;;;6.82;3.17;;;;;;;-144.94;55.82;76301.59;5013512;28;20192;-80
2022/06/05 05:29:13;;;;;;;7.35;3.67;;;;;;;-144.94;55.95;76307.78;5014107;28;20132;-80
2022/06/05 05:31:40;;;;;;;6.75;3.47;;;;;;;-144.94;55.92;76301.59;5015129;28;20436;-81
2022/06/05 05:34:08;;;;;;;6.75;3.47;;;;;;;-144.94;56.23;76309.84;5015092;28;20034;-80
2022/06/05 05:36:37;;;;;;;7.10;3.53;;;;;;;-144.94;55.71;76289.25;5019254;28;20400;-81
2022/06/05 05:42:08;;;;;;;7.32;3.10;;;;;;;-144.94;55.44;76272.78;5025233;28;20041;-79
2022/06/05 05:44:44;;;;;;;5.38;3.00;;;;;;;-144.94;55.08;76270.72;5020146;28;20037;-80
2022/06/05 05:47:14;;;;;;;5.20;3.15;;;;;;;-144.94;55.21;76256.31;5018848;28;20034;-80
2022/06/05 05:49:40;;;;;;;7.80;3.22;;;;;;;-144.94;nan;76258.38;5015569;28;20468;-80
2022/06/05 05:52:09;;;;;;;5.68;3.10;;;;;;;-144.94;54.67;76233.66;5015514;28;20025;-79
2022/06/05 05:54:36;;;;;;;6.07;3.45;;;;;;;-144.94;54.61;76235.72;5016157;28;20030;-79
2022/06/05 05:57:02;;;;;;;4.88;2.85;;;;;;;-144.94;54.51;76225.44;5020477;28;20026;-78
2022/06/05 05:59:27;;;;;;;;;;;;;;;-144.94;54.53;76223.38;5021088;28;20057;-78
2022/06/05 06:01:53;;;;;;;5.25;3.08;;;;;;;-144.94;54.33;76221.31;5015382;28;19979;-78
2022/06/05 06:04:19;;;;;;;;;;;;;;;-144.94;54.53;76221.31;5016021;28;20033;-79
2022/06/05 06:06:49;;;;;;;5.40;2.83;;;;;;;-144.94;54.30;76223.38;5014061;28;19960;-79
2022/06/05 06:09:35;;;;;;;5.90;2.85;;;;;;;-144.94;54.47;76211.03;5013942;28;20375;-79
2022/06/05 06:12:01;;;;;;;5.50;2.60;;;;;;;-144.94;54.51;76200.72;5013116;28;20038;-79
2022/06/05 06:14:26;;;;;;;;;;;;;;;-144.94;54.63;76196.63;5014277;28;20088;-79
2022/06/05 06:16:56;;;;;;;4.93;3.00;;;;;;;-144.94;53.93;76176.03;5013427;28;19913;-79
2022/06/05 06:19:25;;;;;;;5.68;3.30;;;;;;;-144.94;53.93;76163.66;5013507;28;20619;-79
2022/06/05 06:21:50;;;;;;;5.45;3.10;;;;;;;-144.94;53.98;76151.31;5013747;28;20085;-79
2022/06/05 06:24:17;;;;;;;5.03;3.08;;;;;;;-144.94;53.72;76147.19;5013583;28;20065;-79
2022/06/05 06:26:48;;;;;;;5.75;3.22;;;;;;;-144.94;53.81;76151.31;5013362;28;20042;-79
2022/06/05 06:29:16;;;;;;;5.18;2.97;;;;;;;-144.94;53.70;76132.78;5013279;28;20038;-78
2022/06/05 06:31:47;;;;;;;5.35;3.05;;;;;;;-144.94;53.54;76124.56;5013536;28;20059;-80
2022/06/05 06:34:13;;;;;;;5.55;3.30;;;;;;;-144.94;53.17;76122.50;5012102;28;20044;-80
2022/06/05 06:36:38;;;;;;;5.57;3.28;;;;;;;-144.94;52.89;76116.31;5011909;28;20026;-78
2022/06/05 06:39:04;;;;;;;;;;;;;;;-144.94;52.89;76093.69;5014181;28;20112;-79
2022/06/05 06:41:29;;;;;;;5.70;3.22;;;;;;;-144.94;52.81;76110.16;5013658;28;19913;-78
2022/06/05 06:43:54;;;;;;;;;;;;;;;-144.94;52.42;76091.63;5014097;28;20048;-79
2022/06/05 06:46:20;;;;;;;6.90;3.05;;;;;;;-144.94;52.40;76087.50;5013646;28;19921;-78
2022/06/05 06:48:46;;;;;;;;;;;;;;;-144.94;52.27;76085.44;5013861;28;20396;-77
2022/06/05 06:51:12;;;;;;;6.25;3.50;;;;;;;-144.94;52.16;76062.81;5013095;28;20283;-77
2022/06/05 06:53:38;;;;;;;;;;;;;;;-144.94;52.05;76060.75;5013869;28;20120;-77
2022/06/05 06:56:18;;;;;;;5.60;3.17;;;;;;;-144.94;52.17;76040.16;5012102;28;20374;-76
2022/06/05 06:58:52;;;;;;;5.30;2.67;;;;;;;-144.94;51.96;76027.81;5013127;28;20073;-76
2022/06/05 07:01:25;;;;;;;5.63;3.15;;;;;;;-144.94;51.80;76021.63;5012972;28;20030;-78
2022/06/05 07:03:50;;;;;;;6.35;3.53;;;;;;;-144.94;51.72;76007.22;5013002;28;20072;-77
2022/06/05 07:06:23;;;;;;;;;;;;;;;-144.94;51.67;76003.09;5012545;28;20045;-78
2022/06/05 07:08:49;;;;;;;6.18;2.90;;;;;;;-144.94;51.81;75999.00;5011660;28;19909;-77
2022/06/05 07:11:14;;;;;;;;;;;;;;;-144.94;51.75;75988.69;5013229;28;20084;-77
2022/06/05 07:13:40;;;;;;;5.72;2.80;;;;;;;-144.94;51.26;75957.81;5012826;28;19925;-75
2022/06/05 07:16:06;;;;;;;;;;;;;;;-144.94;51.30;75959.88;5013463;28;20029;-76
2022/06/05 07:18:32;;;;;;;5.88;3.60;;;;;;;-144.94;51.26;75961.94;5013050;28;19936;-76
2022/06/05 07:20:57;;;;;;;;;;;;;;;-144.94;51.19;75947.53;5013614;28;20038;-76
2022/06/05 07:23:22;;;;;;;5.57;3.30;;;;;;;-144.94;51.10;75941.34;5012636;28;20364;-76
2022/06/05 07:25:51;;;;;;;;;;;;;;;-144.94;51.29;75951.66;5016041;28;20479;-76
2022/06/05 07:28:19;;;;;;;5.20;3.03;;;;;;;-144.94;51.24;75941.34;5016907;28;20012;-77
2022/06/05 07:30:49;;;;;;;7.47;3.03;;;;;;;-144.94;50.93;75920.78;5016450;28;20030;-77
2022/06/05 07:33:16;;;;;;;5.22;2.92;;;;;;;-144.94;50.58;75896.06;5016509;28;20033;-76
2022/06/05 07:35:42;;;;;;;6.50;3.10;;;;;;;-144.94;51.11;75908.41;5015393;28;20073;-77
2022/06/05 07:38:08;;;;;;;;;;;;;;;-144.94;50.96;75908.41;5017041;28;20033;-78
2022/06/05 07:40:38;;;;;;;6.20;3.58;;;;;;;-144.94;51.04;75908.41;5016329;28;19996;-77
2022/06/05 07:43:03;;;;;;;6.65;3.60;;;;;;;-144.94;50.95;75902.25;5016343;28;20038;-77
2022/06/05 07:45:29;;;;;;;;;;;;;;;-144.94;50.84;75896.06;5016618;28;20041;-76
2022/06/05 07:47:54;;;;;;;5.13;3.13;;;;;;;-144.94;51.13;75908.41;5016352;28;20075;-76
2022/06/05 07:50:19;;;;;;;;;;;;;;;-144.94;51.03;75904.31;5016558;28;20072;-76
2022/06/05 07:55:29;;;;;;;5.93;3.22;;;;;;;-144.94;50.53;75873.44;5015812;28;20252;-75
2022/06/05 07:57:55;;;;;;;;;;;;;;;-144.94;50.04;75867.25;5015778;28;20109;-75
2022/06/05 08:00:21;;;;;;;6.40;2.75;;;;;;;-144.94;49.93;75852.84;5015775;28;19920;-76
2022/06/05 08:02:48;;;;;;;5.75;3.67;;;;;;;-144.94;50.24;75850.78;5015415;28;20109;-75
2022/06/05 08:05:13;;;;;;;5.68;3.50;;;;;;;-144.94;49.67;75821.97;5015556;28;20030;-74
2022/06/05 08:07:38;;;;;;;5.93;3.22;;;;;;;-144.94;49.74;75828.16;5015337;28;20049;-75
2022/06/05 08:10:05;;;;;;;;;;;;;;;-144.94;49.92;75817.84;5014577;28;20025;-74
2022/06/05 08:12:32;;;;;;;6.55;3.45;;;;;;;-144.94;49.91;75809.63;5015097;28;20265;-75
2022/06/05 08:15:00;;;;;;;6.85;3.22;;;;;;;-144.94;49.65;75805.50;5015104;28;20070;-74
2022/06/05 08:17:30;;;;;;;5.55;3.30;;;;;;;-144.94;49.35;75786.97;5014079;28;20021;-75
2022/06/05 08:19:57;;;;;;;6.47;3.38;;;;;;;-144.94;49.70;75811.69;5013679;28;20049;-76
2022/06/05 08:22:24;;;;;;;6.13;3.67;;;;;;;-144.94;49.49;75786.97;5015147;28;20045;-75
2022/06/05 08:24:51;;;;;;;6.53;3.58;;;;;;;-144.94;49.59;75778.75;5013834;28;20384;-75
2022/06/05 08:27:21;;;;;;;6.18;3.17;;;;;;;-144.94;49.48;75758.16;5014998;28;20473;-76
2022/06/05 08:29:46;;;;;;;7.22;3.67;;;;;;;-144.94;49.16;75723.16;5015146;28;20030;-76
2022/06/05 08:32:13;;;;;;;5.88;3.05;;;;;;;-144.94;49.13;75712.88;5014875;28;20091;-76
2022/06/05 08:34:38;;;;;;;5.47;2.95;;;;;;;-144.94;48.87;75702.59;5015235;28;20052;-76
2022/06/05 08:43:01;;;;;;;15.52;3.67;;;;;;;-144.94;47.91;75616.13;5014807;28;20552;-76
2022/06/05 08:45:47;;;;;;;5.75;3.20;;;;;;;-144.94;47.70;75587.31;5007903;28;20041;-76
2022/06/05 08:48:29;;;;;;;5.43;3.70;;;;;;;-144.94;47.48;75574.97;5014703;28;20041;-76
2022/06/05 08:51:01;;;;;;;7.15;3.72;;;;;;;-144.94;47.77;75607.91;5013602;28;20038;-76
2022/06/05 08:54:04;;;;;;;5.97;3.47;;;;;;;-144.94;47.36;75568.78;5014671;28;20030;-75
2022/06/05 08:56:53;;;;;;;6.00;3.30;;;;;;;-144.94;47.06;75517.34;5001717;28;20057;-76
2022/06/05 08:59:26;;;;;;;5.78;3.40;;;;;;;-144.94;46.89;75507.06;5014989;28;20030;-76
2022/06/05 09:02:01;;;;;;;6.10;3.38;;;;;;;-144.94;46.91;75517.34;5014466;28;20084;-76
2022/06/05 09:04:27;;;;;;;6.28;3.45;;;;;;;-144.94;47.45;75529.69;5014341;28;20065;-77
2022/06/05 09:07:00;;;;;;;5.32;3.20;;;;;;;-144.94;47.10;75529.69;5014574;28;20061;-77
2022/06/05 09:09:34;;;;;;;9.00;3.60;;;;;;;-144.94;47.24;75533.81;5014567;28;20042;-77
2022/06/05 09:12:13;;;;;;;4.72;3.10;;;;;;;-144.94;47.92;75554.38;5014191;28;20439;-77
2022/06/05 09:14:50;;;;;;;6.18;3.45;;;;;;;-144.94;47.87;75546.16;5014365;28;20037;-77
2022/06/05 09:17:20;;;;;;;5.00;2.92;;;;;;;-144.94;48.14;75556.44;5014239;28;20026;-77
2022/06/05 09:19:50;;;;;;;5.20;3.45;;;;;;;-144.94;48.50;75566.75;5013973;28;20033;-77
2022/06/05 09:22:30;;;;;;;6.32;4.03;;;;;;;-144.94;48.29;75542.03;5014161;28;20030;-76
2022/06/05 09:25:12;;;;;;;5.45;3.67;;;;;;;-144.94;48.57;75550.28;5013928;28;20030;-77
2022/06/05 09:27:45;;;;;;;5.18;3.30;;;;;;;-144.94;48.43;75546.16;5014209;28;20057;-77
2022/06/05 09:30:29;;;;;;;4.88;3.15;;;;;;;-144.94;49.02;75539.97;5012901;28;20080;-77
2022/06/05 09:33:16;;;;;;;5.40;3.40;;;;;;;-144.94;48.76;75521.47;5013788;28;20040;-77
2022/06/05 09:35:48;;;;;;;5.93;3.70;;;;;;;-144.94;48.98;75537.91;5013791;28;20469;-77
2022/06/05 09:38:22;;;;;;;5.50;3.20;;;;;;;-144.94;49.02;75521.47;5013758;28;20025;-77
2022/06/05 09:41:34;;;;;;;6.13;3.88;;;;;;;-144.94;49.50;75542.03;5014260;28;20037;-77
2022/06/05 09:44:12;;;;;;;4.68;3.17;;;;;;;-144.94;49.25;75529.69;5013296;28;20049;-77
2022/06/05 09:46:46;;;;;;;4.97;3.42;;;;;;;-144.94;49.30;75525.56;5013601;28;20426;-77
2022/06/05 09:49:30;;;;;;;5.32;3.03;;;;;;;-144.94;49.35;75509.09;5013270;28;20040;-77
2022/06/05 09:51:55;;;;;;;5.10;3.10;;;;;;;-144.94;49.49;75517.34;5013587;28;20388;-77
2022/06/05 09:54:30;;;;;;;5.53;3.33;;;;;;;-144.94;49.93;75535.88;5013763;28;20029;-78
2022/06/05 10:00:43;;;;;;;7.00;4.10;;;;;;;-144.94;50.21;75535.88;5013790;28;20116;-77
2022/06/05 10:03:16;;;;;;;5.80;3.53;;;;;;;-144.94;50.58;75539.97;5014035;28;20030;-78
2022/06/05 10:05:45;;;;;;;7.85;4.00;;;;;;;-144.94;50.70;75548.22;5013859;28;20037;-78
2022/06/05 10:08:24;;;;;;;5.70;3.13;;;;;;;-144.94;51.28;75558.50;5012134;28;20387;-78
2022/06/05 10:11:00;;;;;;;5.95;3.20;;;;;;;-144.94;52.71;75591.44;5013728;28;20030;-76
2022/06/05 10:13:51;;;;;;;7.75;3.50;;;;;;;-144.94;53.87;75630.53;5013239;28;20041;-77
2022/06/05 10:16:31;;;;;;;6.13;3.65;;;;;;;-144.94;54.20;75649.06;5013275;28;20030;-78
2022/06/05 10:19:05;;;;;;;6.68;4.15;;;;;;;-144.94;54.85;75647.00;5013348;28;20457;-78
2022/06/05 10:21:36;;;;;;;6.75;3.95;;;;;;;-144.94;56.72;75702.59;5012085;28;20494;-78
2022/06/05 10:24:25;;;;;;;5.95;3.80;;;;;;;-144.94;59.28;75745.81;5013115;28;20030;-78
2022/06/05 10:26:56;;;;;;;6.90;4.40;;;;;;;-144.94;61.10;75793.16;5011929;28;20057;-76
2022/06/05 10:29:39;;;;;;;6.53;4.30;;;;;;;-144.94;63.70;75826.09;5013381;28;20034;-76
2022/06/05 10:32:14;;;;;;;7.68;4.43;;;;;;;-144.94;64.76;75844.59;5013499;28;20461;-76
2022/06/05 10:34:48;;;;;;;8.85;4.50;;;;;;;-144.94;65.90;75859.03;5013423;28;20026;-75
2022/06/05 10:37:20;;;;;;;8.00;4.85;;;;;;;-144.94;67.08;75867.25;5013032;28;20036;-76
2022/06/05 10:40:00;;;;;;;7.57;4.53;;;;;;;-144.94;68.24;75854.91;5013243;28;20061;-76
2022/06/05 10:43:01;;;;;;;7.88;4.55;;;;;;;-144.94;68.69;75877.53;5013271;28;20045;-75
2022/06/05 10:45:42;;;;;;;9.02;5.30;;;;;;;-144.94;69.56;75865.19;4981340;28;20045;-76
2022/06/05 10:48:21;;;;;;;7.43;4.75;;;;;;;-144.94;69.72;75865.19;5013183;28;20034;-76
2022/06/05 10:51:05;;;;;;;10.65;5.05;;;;;;;-144.94;69.41;75867.25;5013242;28;20037;-75
2022/06/05 10:53:56;;;;;;;8.75;5.25;;;;;;;-144.94;70.51;75861.06;5013136;28;20030;-75
2022/06/05 10:56:41;;;;;;;8.80;4.72;;;;;;;-144.94;69.71;75867.25;5013158;28;20504;-75
2022/06/05 10:59:57;;;;;;;8.93;4.57;;;;;;;-144.94;69.96;75854.91;5014807;28;20493;-75
2022/06/05 11:02:28;;;;;;;8.77;4.95;;;;;;;-144.94;70.02;75846.66;4956072;29;20475;-75
2022/06/05 11:05:32;;;;;;;9.82;5.40;;;;;;;-144.94;70.73;75838.44;5002056;28;20365;-75
2022/06/05 11:08:23;;;;;;;9.98;6.03;;;;;;;-144.94;70.79;75832.25;5007797;28;20075;-75
2022/06/05 11:14:26;;;;;;;9.10;5.32;;;;;;;-144.94;70.94;75840.50;5016451;28;20072;-75
2022/06/05 11:17:21;;;;;;;9.63;5.53;;;;;;;-144.94;70.26;75854.91;5016366;28;20088;-76
2022/06/05 11:20:04;;;;;;;9.63;6.05;;;;;;;-144.94;71.72;75850.78;5016368;28;20053;-76
2022/06/05 11:22:31;;;;;;;8.63;6.10;;;;;;;-144.94;71.79;75838.44;5016439;28;20116;-76
2022/06/05 11:25:11;;;;;;;9.55;6.57;;;;;;;-144.94;71.42;75830.19;5016985;28;20026;-76
2022/06/05 11:27:55;;;;;;;10.00;6.68;;;;;;;-144.94;71.95;75826.09;5014694;28;20492;-76
2022/06/05 11:30:49;;;;;;;9.70;6.00;;;;;;;-144.94;71.93;75832.25;5016206;28;20401;-76
2022/06/05 11:33:23;;;;;;;10.77;6.72;;;;;;;-144.94;71.70;75838.44;5016000;28;20034;-76
2022/06/05 11:35:54;;;;;;;11.45;7.15;;;;;;;-144.94;71.92;75821.97;5016335;28;20033;-76
2022/06/05 11:38:50;;;;;;;8.98;5.68;;;;;;;-144.94;72.20;75811.69;5015991;28;20530;-76
2022/06/05 11:41:18;;;;;;;14.70;6.63;;;;;;;-144.94;72.18;75807.56;5016308;28;20030;-76
2022/06/05 11:43:45;;;;;;;11.68;7.15;;;;;;;-144.94;72.11;75801.38;5016220;28;20057;-76
2022/06/05 11:46:52;;;;;;;10.35;5.72;;;;;;;-144.94;70.81;75805.50;5015968;28;20041;-76
2022/06/05 11:49:27;;;;;;;9.40;5.60;;;;;;;-144.94;70.21;75805.50;4986786;28;20046;-76
2022/06/05 11:52:15;;;;;;;10.15;5.68;;;;;;;-144.94;69.61;75801.38;5015958;28;20113;-76
2022/06/05 11:54:53;;;;;;;7.65;5.30;;;;;;;-144.94;70.90;75782.84;5015874;28;20037;-76
2022/06/05 11:57:35;;;;;;;8.30;5.63;;;;;;;-144.94;70.27;75780.81;5016150;28;20040;-76
2022/06/05 12:00:06;;;;;;;9.77;5.82;;;;;;;-144.94;70.28;75754.03;5015859;28;20064;-76
2022/06/05 12:02:59;;;;;;;9.02;5.75;;;;;;;-144.94;69.47;75764.34;5015516;28;20492;-76
2022/06/05 12:06:02;;;;;;;9.23;5.82;;;;;;;-144.94;70.39;75751.97;5015941;28;20112;-75
2022/06/05 12:08:38;;;;;;;8.65;5.80;;;;;;;-144.94;70.82;75745.81;5016023;28;20033;-76
2022/06/05 12:11:17;;;;;;;11.43;6.25;;;;;;;-144.94;70.09;75737.56;5015287;28;20457;-75
2022/06/05 12:13:48;;;;;;;10.25;6.40;;;;;;;-144.94;68.91;75747.88;5014719;28;20099;-75
2022/06/05 12:16:27;;;;;;;10.25;5.90;;;;;;;-144.94;69.22;75733.47;5014442;28;20030;-75